createdAt,value
2022-08-26T00:01:55.437Z,3.20
2022-08-26T00:04:29.521Z,2.78
2022-08-26T00:06:57.299Z,2.63
2022-08-26T00:09:25.918Z,2.90
2022-08-26T00:11:54.532Z,3.17
2022-08-26T00:14:28.272Z,3.40
2022-08-26T00:16:57.626Z,4.03
2022-08-26T00:19:25.182Z,3.35
2022-08-26T00:21:53.311Z,3.30
2022-08-26T00:24:22.041Z,3.78
2022-08-26T00:26:50.586Z,2.90
2022-08-26T00:29:21.351Z,3.65
2022-08-26T00:31:50.149Z,3.22
2022-08-26T00:34:19.535Z,3.30
2022-08-26T00:36:51.720Z,3.75
2022-08-26T00:39:20.268Z,3.50
2022-08-26T00:41:48.594Z,3.63
2022-08-26T00:44:16.560Z,3.65
2022-08-26T00:46:49.461Z,3.63
2022-08-26T00:49:42.997Z,3.53
2022-08-26T00:52:16.212Z,3.40
2022-08-26T00:54:52.084Z,4.47
2022-08-26T00:57:22.688Z,3.58
2022-08-26T00:59:57.569Z,3.78
2022-08-26T01:02:25.852Z,4.00
2022-08-26T01:04:56.519Z,4.03
2022-08-26T01:07:31.369Z,3.88
2022-08-26T01:10:01.779Z,4.10
2022-08-26T01:12:33.131Z,4.47
2022-08-26T01:15:02.377Z,3.55
2022-08-26T01:17:30.161Z,4.83
2022-08-26T01:20:10.476Z,4.00
2022-08-26T01:23:01.575Z,3.58
2022-08-26T01:25:33.962Z,4.15
2022-08-26T01:28:06.071Z,4.30
2022-08-26T01:30:35.641Z,4.13
2022-08-26T01:33:06.942Z,4.32
2022-08-26T01:35:34.565Z,3.78
2022-08-26T01:38:02.528Z,4.00
2022-08-26T01:40:36.589Z,4.07
2022-08-26T01:43:08.694Z,4.00
2022-08-26T01:45:40.656Z,5.00
2022-08-26T01:48:15.334Z,4.50
2022-08-26T01:50:44.128Z,4.60
2022-08-26T01:53:15.215Z,4.38
2022-08-26T01:55:47.088Z,3.60
2022-08-26T01:58:25.010Z,3.53
2022-08-26T02:00:53.101Z,4.20
2022-08-26T02:03:24.555Z,3.85
2022-08-26T02:05:59.605Z,4.03
2022-08-26T02:08:40.344Z,3.70
2022-08-26T02:11:07.946Z,3.70
2022-08-26T02:13:40.506Z,3.55
2022-08-26T02:16:08.979Z,2.92
2022-08-26T02:18:39.419Z,2.83
2022-08-26T02:21:08.309Z,2.97
2022-08-26T02:23:36.076Z,3.25
2022-08-26T02:26:09.548Z,3.20
2022-08-26T02:28:42.176Z,3.15
2022-08-26T02:31:09.622Z,2.95
2022-08-26T02:33:37.396Z,3.27
2022-08-26T02:36:12.173Z,3.38
2022-08-26T02:38:40.910Z,2.60
2022-08-26T02:41:11.491Z,3.05
2022-08-26T02:43:38.880Z,3.13
2022-08-26T02:46:07.640Z,2.77
2022-08-26T02:48:36.280Z,3.03
2022-08-26T02:51:04.518Z,3.20
2022-08-26T02:53:35.417Z,3.35
2022-08-26T02:56:04.389Z,3.33
2022-08-26T02:58:32.216Z,3.43
2022-08-26T03:00:59.831Z,3.40
2022-08-26T03:03:29.043Z,4.10
2022-08-26T03:05:58.078Z,3.88
2022-08-26T03:08:25.403Z,3.22
2022-08-26T03:10:53.221Z,4.10
2022-08-26T03:13:20.567Z,3.97
2022-08-26T03:15:47.941Z,3.78
2022-08-26T03:18:16.477Z,4.75
2022-08-26T03:20:44.084Z,3.83
2022-08-26T03:23:12.756Z,4.20
2022-08-26T03:25:40.417Z,4.25
2022-08-26T03:28:07.849Z,4.63
2022-08-26T03:30:44.931Z,4.18
2022-08-26T03:33:14.118Z,4.45
2022-08-26T03:35:43.755Z,4.50
2022-08-26T03:38:11.741Z,4.30
2022-08-26T03:40:39.903Z,4.95
2022-08-26T03:43:10.005Z,5.15
2022-08-26T03:45:37.967Z,5.13
2022-08-26T03:48:06.180Z,4.43
2022-08-26T03:50:34.087Z,4.60
2022-08-26T03:53:02.532Z,4.95
2022-08-26T03:55:34.507Z,5.25
2022-08-26T03:58:02.584Z,6.00
2022-08-26T04:00:30.718Z,4.97
2022-08-26T04:02:58.164Z,5.03
2022-08-26T04:05:25.829Z,5.18
2022-08-26T04:07:56.397Z,5.40
2022-08-26T04:10:28.488Z,4.93
2022-08-26T04:12:58.876Z,4.90
2022-08-26T04:15:27.429Z,5.55
2022-08-26T04:17:55.875Z,5.03
2022-08-26T04:20:24.768Z,4.13
2022-08-26T04:22:52.873Z,5.03
2022-08-26T04:25:20.690Z,5.00
2022-08-26T04:27:48.653Z,4.80
2022-08-26T04:30:18.665Z,4.45
2022-08-26T04:32:47.768Z,4.88
2022-08-26T04:35:15.380Z,4.40
2022-08-26T04:37:44.203Z,4.97
2022-08-26T04:40:11.820Z,4.85
2022-08-26T04:42:39.431Z,5.72
2022-08-26T04:45:10.248Z,5.50
2022-08-26T04:47:38.954Z,5.47
2022-08-26T04:50:07.971Z,6.03
2022-08-26T04:52:36.955Z,5.10
2022-08-26T04:55:06.699Z,6.13
2022-08-26T04:57:36.891Z,5.95
2022-08-26T05:00:07.197Z,7.03
2022-08-26T05:02:34.831Z,7.67
2022-08-26T05:05:02.722Z,7.60
2022-08-26T05:07:31.899Z,7.07
2022-08-26T05:09:59.368Z,8.73
2022-08-26T05:12:28.057Z,7.93
2022-08-26T05:14:55.753Z,7.33
2022-08-26T05:17:23.381Z,7.47
2022-08-26T05:19:50.959Z,7.15
2022-08-26T05:22:18.412Z,7.50
2022-08-26T05:24:46.704Z,8.30
2022-08-26T05:27:14.728Z,7.73
2022-08-26T05:29:42.694Z,8.73
2022-08-26T05:32:11.843Z,7.30
2022-08-26T05:34:39.314Z,7.22
2022-08-26T05:37:07.126Z,7.40
2022-08-26T05:39:34.549Z,7.27
2022-08-26T05:42:02.520Z,7.50
2022-08-26T05:44:29.889Z,7.82
2022-08-26T05:47:17.169Z,6.82
2022-08-26T05:49:51.696Z,6.43
2022-08-26T05:52:19.825Z,6.30
2022-08-26T05:54:47.831Z,7.03
2022-08-26T05:57:15.993Z,6.65
2022-08-26T05:59:46.117Z,6.25
2022-08-26T06:02:13.678Z,6.15
2022-08-26T06:04:41.113Z,6.43
2022-08-26T06:07:11.644Z,6.43
2022-08-26T06:09:40.183Z,6.18
2022-08-26T06:12:07.761Z,6.07
2022-08-26T06:14:36.275Z,5.70
2022-08-26T06:17:04.533Z,6.07
2022-08-26T06:19:33.151Z,6.05
2022-08-26T06:22:23.590Z,6.43
2022-08-26T06:25:10.141Z,6.35
2022-08-26T06:27:37.527Z,5.72
2022-08-26T06:30:05.834Z,5.60
2022-08-26T06:32:33.735Z,6.15
2022-08-26T06:35:01.507Z,6.60
2022-08-26T06:37:28.953Z,5.40
2022-08-26T06:39:56.868Z,5.40
2022-08-26T06:42:25.146Z,5.63
2022-08-26T06:44:52.457Z,5.88
2022-08-26T06:47:19.932Z,6.03
2022-08-26T06:49:48.231Z,5.53
2022-08-26T06:52:22.538Z,5.90
2022-08-26T06:54:52.039Z,6.00
2022-08-26T06:57:20.393Z,5.93
2022-08-26T06:59:48.855Z,5.72
2022-08-26T07:02:19.001Z,5.88
2022-08-26T07:04:48.124Z,5.47
2022-08-26T07:07:18.640Z,6.03
2022-08-26T07:09:49.332Z,5.80
2022-08-26T07:12:21.020Z,5.72
2022-08-26T07:14:48.787Z,6.57
2022-08-26T07:17:16.909Z,5.97
2022-08-26T07:19:46.867Z,5.37
2022-08-26T07:22:14.430Z,6.10
2022-08-26T07:24:42.543Z,5.80
2022-08-26T07:27:14.304Z,5.50
2022-08-26T07:29:43.987Z,5.18
2022-08-26T07:32:14.976Z,5.40
2022-08-26T07:34:43.597Z,5.75
2022-08-26T07:37:11.257Z,5.63
2022-08-26T07:39:40.441Z,5.50
2022-08-26T07:42:09.543Z,5.70
2022-08-26T07:44:38.490Z,5.17
2022-08-26T07:47:10.477Z,5.60
2022-08-26T07:49:54.317Z,5.72
2022-08-26T07:52:26.236Z,5.53
2022-08-26T07:54:55.094Z,5.03
2022-08-26T07:57:22.418Z,5.33
2022-08-26T07:59:52.165Z,5.43
2022-08-26T08:02:22.776Z,5.35
2022-08-26T08:04:52.081Z,5.25
2022-08-26T08:07:19.640Z,5.30
2022-08-26T08:09:49.926Z,5.47
2022-08-26T08:12:19.381Z,5.70
2022-08-26T08:14:48.592Z,5.45
2022-08-26T08:17:16.829Z,5.07
2022-08-26T08:19:44.367Z,5.57
2022-08-26T08:22:18.041Z,6.13
2022-08-26T08:24:49.672Z,5.57
2022-08-26T08:27:22.803Z,5.25
2022-08-26T08:29:54.414Z,5.13
2022-08-26T08:32:23.341Z,5.40
2022-08-26T08:34:50.843Z,5.47
2022-08-26T08:37:18.351Z,5.05
2022-08-26T08:39:45.732Z,6.40
2022-08-26T08:42:31.017Z,5.18
2022-08-26T08:45:03.477Z,5.13
2022-08-26T08:47:37.121Z,5.80
2022-08-26T08:50:34.272Z,5.40
2022-08-26T08:53:39.672Z,5.40
2022-08-26T08:56:31.530Z,5.28
2022-08-26T08:59:04.808Z,5.68
2022-08-26T09:01:39.721Z,5.63
2022-08-26T09:04:44.366Z,6.63
2022-08-26T09:07:37.318Z,5.55
2022-08-26T09:10:32.457Z,5.05
2022-08-26T09:13:01.371Z,5.50
2022-08-26T09:16:31.532Z,4.83
2022-08-26T09:19:26.841Z,4.90
2022-08-26T09:21:59.004Z,5.18
2022-08-26T09:24:28.616Z,5.38
2022-08-26T09:26:58.502Z,4.85
2022-08-26T09:29:41.309Z,4.87
2022-08-26T09:32:24.462Z,5.13
2022-08-26T09:35:02.053Z,5.82
2022-08-26T09:37:43.535Z,4.68
2022-08-26T09:40:34.945Z,5.22
2022-08-26T09:43:22.882Z,5.47
2022-08-26T09:45:59.543Z,5.90
2022-08-26T09:48:30.490Z,5.40
2022-08-26T09:51:04.246Z,4.60
2022-08-26T09:53:34.678Z,4.63
2022-08-26T09:56:16.099Z,5.70
2022-08-26T09:58:47.451Z,4.72
2022-08-26T10:01:30.084Z,5.28
2022-08-26T10:04:08.580Z,4.63
2022-08-26T10:06:54.809Z,5.22
2022-08-26T10:09:25.944Z,5.07
2022-08-26T10:12:06.491Z,4.72
2022-08-26T10:14:49.359Z,4.60
2022-08-26T10:17:41.002Z,4.20
2022-08-26T10:20:23.491Z,4.43
2022-08-26T10:23:15.683Z,5.03
2022-08-26T10:25:46.576Z,5.45
2022-08-26T10:28:30.631Z,4.05
2022-08-26T10:31:27.825Z,4.63
2022-08-26T10:33:58.899Z,4.60
2022-08-26T10:37:15.513Z,3.80
2022-08-26T10:40:02.973Z,3.88
2022-08-26T10:42:39.216Z,3.92
2022-08-26T10:45:18.972Z,3.92
2022-08-26T10:47:51.012Z,4.15
2022-08-26T10:50:20.423Z,4.80
2022-08-26T10:52:55.720Z,3.90
2022-08-26T10:55:47.575Z,4.35
2022-08-26T10:58:30.151Z,4.05
2022-08-26T11:01:26.996Z,3.50
2022-08-26T11:04:07.887Z,3.10
2022-08-26T11:06:37.169Z,3.25
2022-08-26T11:09:07.605Z,3.70
2022-08-26T11:11:41.243Z,3.80
2022-08-26T11:14:11.014Z,3.80
2022-08-26T11:16:54.155Z,3.20
2022-08-26T11:19:59.334Z,3.25
2022-08-26T11:22:31.666Z,3.50
2022-08-26T11:24:59.137Z,3.58
2022-08-26T11:27:26.855Z,3.80
2022-08-26T11:30:29.173Z,4.07
2022-08-26T11:32:59.004Z,3.75
2022-08-26T11:35:27.038Z,3.80
2022-08-26T11:37:58.729Z,3.30
2022-08-26T11:40:32.444Z,3.22
2022-08-26T11:43:08.792Z,3.20
2022-08-26T11:45:40.174Z,3.03
2022-08-26T11:48:34.373Z,2.50
2022-08-26T11:51:09.728Z,3.03
2022-08-26T11:53:42.933Z,3.25
2022-08-26T11:56:26.028Z,2.70
2022-08-26T11:58:58.398Z,2.90
2022-08-26T12:01:31.363Z,3.00
2022-08-26T12:04:00.678Z,3.10
2022-08-26T12:06:32.394Z,3.15
2022-08-26T12:09:02.781Z,2.73
2022-08-26T12:11:34.862Z,3.08
2022-08-26T12:14:21.605Z,2.58
2022-08-26T12:16:49.340Z,3.03
2022-08-26T12:19:33.023Z,4.57
2022-08-26T12:22:08.155Z,3.40
2022-08-26T12:24:36.034Z,3.30
2022-08-26T12:27:17.301Z,3.13
2022-08-26T12:29:48.391Z,3.25
2022-08-26T12:32:18.637Z,4.22
2022-08-26T12:34:49.315Z,3.47
2022-08-26T12:37:16.838Z,4.63
2022-08-26T12:39:47.245Z,3.17
2022-08-26T12:42:17.576Z,3.45
2022-08-26T12:45:00.905Z,3.28
2022-08-26T12:47:42.877Z,3.33
2022-08-26T12:50:35.241Z,3.17
2022-08-26T12:53:16.073Z,3.28
2022-08-26T12:55:51.056Z,3.75
2022-08-26T12:58:36.435Z,2.78
2022-08-26T13:01:07.139Z,3.30
2022-08-26T13:03:34.869Z,3.60
2022-08-26T13:06:15.653Z,3.92
2022-08-26T13:08:52.991Z,3.50
2022-08-26T13:11:23.941Z,3.40
2022-08-26T13:14:10.090Z,3.40
2022-08-26T13:16:39.748Z,3.28
2022-08-26T13:19:10.711Z,3.53
2022-08-26T13:21:49.984Z,3.05
2022-08-26T13:24:24.720Z,3.13
2022-08-26T13:26:53.816Z,3.70
2022-08-26T13:29:21.414Z,3.83
2022-08-26T13:31:49.336Z,3.63
2022-08-26T13:34:19.796Z,3.40
2022-08-26T13:36:48.674Z,4.20
2022-08-26T13:39:16.960Z,3.80
2022-08-26T13:41:44.685Z,4.13
2022-08-26T13:44:12.794Z,3.60
2022-08-26T13:46:40.794Z,4.28
2022-08-26T13:49:08.775Z,4.25
2022-08-26T13:51:36.814Z,3.40
2022-08-26T13:54:05.439Z,3.65
2022-08-26T13:56:34.066Z,4.22
2022-08-26T13:59:02.460Z,4.85
2022-08-26T14:01:31.729Z,4.15
2022-08-26T14:03:59.584Z,4.23
2022-08-26T14:06:27.213Z,4.00
2022-08-26T14:08:55.014Z,4.28
2022-08-26T14:11:25.284Z,4.15
2022-08-26T14:13:53.084Z,3.72
2022-08-26T14:16:31.765Z,3.57
2022-08-26T14:19:01.692Z,3.60
2022-08-26T14:21:32.952Z,3.97
2022-08-26T14:24:01.155Z,4.50
2022-08-26T14:26:29.968Z,3.88
2022-08-26T14:28:59.274Z,4.00
2022-08-26T14:31:29.697Z,3.70
2022-08-26T14:34:04.160Z,3.22
2022-08-26T14:36:32.650Z,3.35
2022-08-26T14:39:03.861Z,4.25
2022-08-26T14:41:32.602Z,4.33
2022-08-26T14:44:06.363Z,3.20
2022-08-26T14:46:41.690Z,4.57
2022-08-26T14:49:10.725Z,3.58
2022-08-26T14:51:39.592Z,3.53
2022-08-26T14:54:14.524Z,3.27
2022-08-26T14:56:59.706Z,4.07
2022-08-26T14:59:30.938Z,4.25
2022-08-26T15:02:00.928Z,3.70
2022-08-26T15:04:28.994Z,3.42
2022-08-26T15:06:59.037Z,3.00
2022-08-26T15:09:28.212Z,3.28
2022-08-26T15:11:56.018Z,3.40
2022-08-26T15:14:24.560Z,3.50
2022-08-26T15:16:56.153Z,3.50
2022-08-26T15:19:25.845Z,3.60
2022-08-26T15:21:53.767Z,4.05
2022-08-26T15:24:23.573Z,3.75
2022-08-26T15:26:51.215Z,4.60
2022-08-26T15:29:19.160Z,3.05
2022-08-26T15:31:47.886Z,3.53
2022-08-26T15:34:16.975Z,3.60
2022-08-26T15:36:46.682Z,3.88
2022-08-26T15:39:15.590Z,4.93
2022-08-26T15:41:43.680Z,4.03
2022-08-26T15:44:12.200Z,3.63
2022-08-26T15:46:40.083Z,4.30
2022-08-26T15:49:08.025Z,4.22
2022-08-26T15:51:45.907Z,3.83
2022-08-26T15:54:16.887Z,3.92
2022-08-26T15:56:45.622Z,3.20
2022-08-26T15:59:16.124Z,3.90
2022-08-26T16:01:43.579Z,3.50
2022-08-26T16:04:11.722Z,3.80
2022-08-26T16:06:41.478Z,3.95
2022-08-26T16:09:09.777Z,3.87
2022-08-26T16:11:38.013Z,4.60
2022-08-26T16:14:06.375Z,4.80
2022-08-26T16:16:33.807Z,4.47
2022-08-26T16:19:06.840Z,4.18
2022-08-26T16:21:35.391Z,4.37
2022-08-26T16:24:03.844Z,5.05
2022-08-26T16:26:34.312Z,4.70
2022-08-26T16:29:03.578Z,4.25
2022-08-26T16:31:31.143Z,4.50
2022-08-26T16:33:58.570Z,4.60
2022-08-26T16:36:25.943Z,4.95
2022-08-26T16:38:55.876Z,4.85
2022-08-26T16:41:26.007Z,5.15
2022-08-26T16:43:54.376Z,4.32
2022-08-26T16:46:25.797Z,4.70
2022-08-26T16:48:54.925Z,4.63
2022-08-26T16:51:23.898Z,5.45
2022-08-26T16:53:52.648Z,4.40
2022-08-26T16:56:23.273Z,4.80
2022-08-26T16:58:58.672Z,5.87
2022-08-26T17:01:26.298Z,5.03
2022-08-26T17:03:54.445Z,5.18
2022-08-26T17:06:21.820Z,5.13
2022-08-26T17:08:49.497Z,5.68
2022-08-26T17:11:16.973Z,5.03
2022-08-26T17:13:44.367Z,4.85
2022-08-26T17:16:13.115Z,4.70
2022-08-26T17:18:40.914Z,4.70
2022-08-26T17:21:12.443Z,4.57
2022-08-26T17:23:44.948Z,4.80
2022-08-26T17:26:12.792Z,5.22
2022-08-26T17:28:40.884Z,5.07
2022-08-26T17:31:10.310Z,4.63
2022-08-26T17:33:39.247Z,4.20
2022-08-26T17:36:08.939Z,4.37
2022-08-26T17:38:37.960Z,4.40
2022-08-26T17:41:10.349Z,4.55
2022-08-26T17:43:38.608Z,5.95
2022-08-26T17:46:07.921Z,5.15
2022-08-26T17:48:36.748Z,4.50
2022-08-26T17:51:12.995Z,4.95
2022-08-26T17:53:41.954Z,4.20
2022-08-26T17:56:12.252Z,5.00
2022-08-26T17:58:41.378Z,4.45
2022-08-26T18:01:21.053Z,4.80
2022-08-26T18:03:49.114Z,4.50
2022-08-26T18:06:16.845Z,4.95
2022-08-26T18:08:45.199Z,5.13
2022-08-26T18:11:15.777Z,4.25
2022-08-26T18:13:47.099Z,4.10
2022-08-26T18:16:16.742Z,4.53
2022-08-26T18:18:44.536Z,4.50
2022-08-26T18:21:17.958Z,4.30
2022-08-26T18:23:47.453Z,5.70
2022-08-26T18:26:21.415Z,4.83
2022-08-26T18:28:49.601Z,5.32
2022-08-26T18:31:17.349Z,4.90
2022-08-26T18:33:45.120Z,5.07
2022-08-26T18:36:19.911Z,4.70
2022-08-26T18:38:50.264Z,4.30
2022-08-26T18:41:21.056Z,4.43
2022-08-26T18:43:50.684Z,4.30
2022-08-26T18:46:19.412Z,3.97
2022-08-26T18:48:50.748Z,4.90
2022-08-26T18:51:25.108Z,4.87
2022-08-26T18:53:52.506Z,3.83
2022-08-26T18:56:20.220Z,4.93
2022-08-26T18:58:50.147Z,4.38
2022-08-26T19:01:19.500Z,4.63
2022-08-26T19:03:48.071Z,5.63
2022-08-26T19:06:20.816Z,5.00
2022-08-26T19:08:49.895Z,5.22
2022-08-26T19:11:31.361Z,4.60
2022-08-26T19:14:01.848Z,4.40
2022-08-26T19:16:30.116Z,4.40
2022-08-26T19:18:59.245Z,5.05
2022-08-26T19:21:26.928Z,5.03
2022-08-26T19:24:00.386Z,5.03
2022-08-26T19:26:29.555Z,4.45
2022-08-26T19:28:57.320Z,4.80
2022-08-26T19:31:24.728Z,5.13
2022-08-26T19:33:52.404Z,4.97
2022-08-26T19:36:23.011Z,4.95
2022-08-26T19:38:51.004Z,4.80
2022-08-26T19:41:36.499Z,4.80
2022-08-26T19:44:33.869Z,4.70
2022-08-26T19:47:03.784Z,5.50
2022-08-26T19:49:32.073Z,4.38
2022-08-26T19:51:59.826Z,4.82
2022-08-26T19:54:27.424Z,4.63
2022-08-26T19:56:55.083Z,5.03
2022-08-26T19:59:22.927Z,5.53
2022-08-26T20:02:00.408Z,4.47
2022-08-26T20:04:30.989Z,4.70
2022-08-26T20:07:00.594Z,4.33
2022-08-26T20:09:30.337Z,4.95
2022-08-26T20:11:57.882Z,4.65
2022-08-26T20:14:26.854Z,4.70
2022-08-26T20:16:54.454Z,4.47
2022-08-26T20:19:40.953Z,4.40
2022-08-26T20:22:08.660Z,3.80
2022-08-26T20:24:36.624Z,4.38
2022-08-26T20:27:07.954Z,3.92
2022-08-26T20:29:36.530Z,5.07
2022-08-26T20:32:06.857Z,4.50
2022-08-26T20:34:36.794Z,4.55
2022-08-26T20:37:04.630Z,4.20
2022-08-26T20:39:32.025Z,4.88
2022-08-26T20:41:59.369Z,4.32
2022-08-26T20:44:27.079Z,4.50
2022-08-26T20:46:55.839Z,3.95
2022-08-26T20:49:23.388Z,4.30
2022-08-26T20:51:53.764Z,4.20
2022-08-26T20:54:27.504Z,4.28
2022-08-26T20:56:56.879Z,4.63
2022-08-26T20:59:24.812Z,4.28
2022-08-26T21:01:52.314Z,4.10
2022-08-26T21:04:22.916Z,4.07
2022-08-26T21:06:52.741Z,3.80
2022-08-26T21:09:22.849Z,4.13
2022-08-26T21:11:51.797Z,4.07
2022-08-26T21:14:20.831Z,4.13
2022-08-26T21:16:48.439Z,4.18
2022-08-26T21:19:19.171Z,4.13
2022-08-26T21:21:48.642Z,3.63
2022-08-26T21:24:16.466Z,3.58
2022-08-26T21:26:44.381Z,4.03
2022-08-26T21:29:13.818Z,4.22
2022-08-26T21:31:46.025Z,4.50
2022-08-26T21:34:18.318Z,4.37
2022-08-26T21:36:47.538Z,4.22
2022-08-26T21:39:16.564Z,4.60
2022-08-26T21:41:45.006Z,4.50
2022-08-26T21:44:14.290Z,5.10
2022-08-26T21:46:42.806Z,4.13
2022-08-26T21:49:12.545Z,4.25
2022-08-26T21:51:43.832Z,4.18
2022-08-26T21:54:12.498Z,4.10
2022-08-26T21:56:44.897Z,4.32
2022-08-26T21:59:13.357Z,3.97
2022-08-26T22:01:40.778Z,4.18
2022-08-26T22:04:09.829Z,3.97
2022-08-26T22:06:45.328Z,4.20
2022-08-26T22:09:14.442Z,4.13
2022-08-26T22:11:42.331Z,3.50
2022-08-26T22:14:10.406Z,3.58
2022-08-26T22:16:37.974Z,3.75
2022-08-26T22:19:06.007Z,3.83
2022-08-26T22:21:34.406Z,3.65
2022-08-26T22:24:02.099Z,4.00
2022-08-26T22:26:32.554Z,4.43
2022-08-26T22:29:02.129Z,4.18
2022-08-26T22:31:36.974Z,3.88
2022-08-26T22:34:08.271Z,3.97
2022-08-26T22:36:39.760Z,3.67
2022-08-26T22:39:11.617Z,3.90
2022-08-26T22:41:39.414Z,3.80
2022-08-26T22:44:07.976Z,4.60
2022-08-26T22:46:39.161Z,4.82
2022-08-26T22:49:10.698Z,4.53
2022-08-26T22:51:38.681Z,4.47
2022-08-26T22:54:07.586Z,4.45
2022-08-26T22:56:36.595Z,5.25
2022-08-26T22:59:04.839Z,5.25
2022-08-26T23:01:35.854Z,4.40
2022-08-26T23:04:03.903Z,5.20
2022-08-26T23:06:31.340Z,5.07
2022-08-26T23:08:58.666Z,5.90
2022-08-26T23:11:26.109Z,5.60
2022-08-26T23:13:53.473Z,6.00
2022-08-26T23:16:21.842Z,6.35
2022-08-26T23:18:50.668Z,6.10
2022-08-26T23:21:18.125Z,6.68
2022-08-26T23:23:45.999Z,6.15
2022-08-26T23:26:17.451Z,6.33
2022-08-26T23:28:45.186Z,7.45
2022-08-26T23:31:12.592Z,6.82
2022-08-26T23:33:59.079Z,7.18
2022-08-26T23:36:26.993Z,7.28
2022-08-26T23:38:54.562Z,7.07
2022-08-26T23:41:23.234Z,7.10
2022-08-26T23:43:51.861Z,6.70
2022-08-26T23:46:20.152Z,6.40
2022-08-26T23:48:47.845Z,6.85
2022-08-26T23:51:33.818Z,7.30
2022-08-26T23:54:01.255Z,7.68
2022-08-26T23:56:29.331Z,8.35
2022-08-26T23:58:58.549Z,8.18
